Fortune Amaryllis — VRDT3 — position and weather

sailwx.info

Track history (hours):
 
Tides and Currents Weather Stations Pressure Air Temp Water Temp Dewpoint Dewpoint Depression Visibility Wind Speed Wind Dir Waves Ship Positions

Fortune Amaryllis

Last reported at 2014-Sep-24 16:05 UTC. Time now 2014-Oct-02 02:24 UTC.
Position S 08°52' E 129°26'.

Length 175 m; draft 9.3 m.

Type: Cargo ship. MMSI: 477046800.

Date/timePositionNaut miles runAvg speedWind from/ knotsBaromVisibWave heightAir tempDewpointWater temp
2014-Sep-24 16:05S 08°52' E 129°26'16810.7
2014-Sep-24 00:29S 11°38' E 129°43'1312.3
2014-Sep-23 23:24S 11°49' E 129°51'1112.4
2014-Sep-23 22:33S 11°57' E 129°58'1411.1
2014-Sep-23 21:15S 12°05' E 130°11'710.3
2014-Sep-23 20:33S 12°07' E 130°18'10 9.6
2014-Sep-23 19:33S 12°11' E 130°27'9 9.2
2014-Sep-23 18:33S 12°15' E 130°35'9 8.9
2014-Sep-23 17:33S 12°20' E 130°42'8 8.4
2014-Sep-23 16:33S 12°27' E 130°48'6 5.4
2014-Sep-23 15:29S 12°29' E 130°53'0 0.0
2014-Sep-23 14:29S 12°29' E 130°53'0 0.0
2014-Sep-23 13:32S 12°29' E 130°53'0 0.0
2014-Sep-23 12:32S 12°29' E 130°53'0 0.0
2014-Sep-23 11:32S 12°29' E 130°53'0 0.0
2014-Sep-23 10:32S 12°29' E 130°53'0 0.0
2014-Sep-23 09:32S 12°29' E 130°53'0 0.0
2014-Sep-23 08:32S 12°29' E 130°53'0 0.0
2014-Sep-23 07:32S 12°29' E 130°53'0 0.0
2014-Sep-23 06:32S 12°29' E 130°53'0 0.0
2014-Sep-23 05:23S 12°29' E 130°53'0 0.0
2014-Sep-23 04:26S 12°29' E 130°53'0 0.0
2014-Sep-23 03:26S 12°29' E 130°53'0 0.0
2014-Sep-23 02:29S 12°29' E 130°53'0 0.0
2014-Sep-23 01:29S 12°29' E 130°53'0 0.0
2014-Sep-23 00:29S 12°29' E 130°53'0 0.0
2014-Sep-22 23:29S 12°29' E 130°53'0 0.0
2014-Sep-22 22:32S 12°29' E 130°53'0 0.0
2014-Sep-22 21:32S 12°29' E 130°53'0 0.0
2014-Sep-22 20:32S 12°29' E 130°53'0 0.0
2014-Sep-22 19:32S 12°29' E 130°53'0 0.0
2014-Sep-22 18:32S 12°29' E 130°53'0 0.0
2014-Sep-22 17:32S 12°29' E 130°53'0 0.0
2014-Sep-22 16:23S 12°29' E 130°53'0 0.0
2014-Sep-22 15:23S 12°29' E 130°53'0 0.0
2014-Sep-22 14:26S 12°29' E 130°53'0 0.0
2014-Sep-22 13:26S 12°29' E 130°53'0 0.0
2014-Sep-22 12:29S 12°29' E 130°53'0 0.0
2014-Sep-22 11:29S 12°29' E 130°53'0 0.0
2014-Sep-22 10:29S 12°29' E 130°53'0 0.0
2014-Sep-22 09:32S 12°29' E 130°53'0 0.0
2014-Sep-22 08:32S 12°29' E 130°53'0 0.0
2014-Sep-22 07:32S 12°29' E 130°53'0 0.0
2014-Sep-22 06:32S 12°29' E 130°53'0 0.0
2014-Sep-22 05:32S 12°29' E 130°53'0 0.0
2014-Sep-22 04:32S 12°29' E 130°53'0 0.0
2014-Sep-22 03:32S 12°29' E 130°53'0 0.0
2014-Sep-22 02:23S 12°29' E 130°53'0 0.0
2014-Sep-22 01:26S 12°29' E 130°53'0 0.0
2014-Sep-22 00:26S 12°29' E 130°53'0 0.0
2014-Sep-21 23:26S 12°29' E 130°53'0 0.1
2014-Sep-21 22:34S 12°30' E 130°53'7 7.2
2014-Sep-21 21:33S 12°25' E 130°47'3 3.1
2014-Sep-21 20:32S 12°23' E 130°45'0 0.1
2014-Sep-21 19:32S 12°23' E 130°45'0 0.0
2014-Sep-21 18:32S 12°23' E 130°45'0 0.0
2014-Sep-21 17:32S 12°23' E 130°45'0 0.0
2014-Sep-21 16:23S 12°23' E 130°45'0 0.0
2014-Sep-21 15:26S 12°23' E 130°45'0 0.0
2014-Sep-21 14:26S 12°23' E 130°45'0 0.0
2014-Sep-21 13:26S 12°23' E 130°45'0 0.1
2014-Sep-21 12:29S 12°23' E 130°45'0 0.1
2014-Sep-21 11:29S 12°23' E 130°45'0 0.0
2014-Sep-21 10:29S 12°23' E 130°45'0 0.1
2014-Sep-21 09:32S 12°23' E 130°45'0 0.0
2014-Sep-21 08:32S 12°23' E 130°45'0 0.0
2014-Sep-21 07:32S 12°23' E 130°45'0 0.0
2014-Sep-21 06:32S 12°23' E 130°45'0 0.0
2014-Sep-21 05:32S 12°23' E 130°45'0 0.0
2014-Sep-21 04:32S 12°23' E 130°45'0 0.0
2014-Sep-21 03:32S 12°23' E 130°45'0 0.0
2014-Sep-21 02:23S 12°23' E 130°45'0 0.2
2014-Sep-21 01:26S 12°23' E 130°45'0 0.1
2014-Sep-21 00:26S 12°23' E 130°45'0 0.1
2014-Sep-20 23:29S 12°23' E 130°45'0 0.0
2014-Sep-20 22:29S 12°23' E 130°45'0 0.0
2014-Sep-20 21:29S 12°23' E 130°45'0 0.1
2014-Sep-20 20:29S 12°23' E 130°45'0 0.1
2014-Sep-20 19:32S 12°23' E 130°45'0 0.0
2014-Sep-20 18:32S 12°23' E 130°45'0 0.0
2014-Sep-20 17:32S 12°23' E 130°45'0 0.0
2014-Sep-20 16:32S 12°23' E 130°45'0 0.0
2014-Sep-20 15:32S 12°23' E 130°45'0 0.0
2014-Sep-20 14:32S 12°23' E 130°45'0 0.0
2014-Sep-20 13:23S 12°23' E 130°45'0 0.0
2014-Sep-20 12:23S 12°23' E 130°45'0 0.1
2014-Sep-20 11:26S 12°23' E 130°45'0 0.1
2014-Sep-20 10:26S 12°23' E 130°45'0 0.0
2014-Sep-20 09:29S 12°23' E 130°45'0 0.1
2014-Sep-20 08:29S 12°23' E 130°45'0 0.0
2014-Sep-20 07:29S 12°23' E 130°45'0 0.1
2014-Sep-20 06:32S 12°23' E 130°45'0 0.1
2014-Sep-20 05:32S 12°23' E 130°45'0 0.0
2014-Sep-20 04:32S 12°23' E 130°45'0 0.0
2014-Sep-20 03:32S 12°23' E 130°45'0 0.0
2014-Sep-20 02:33S 12°23' E 130°45'7 7.4
2014-Sep-20 01:33S 12°28' E 130°50'3 2.9
2014-Sep-20 00:33S 12°29' E 130°53'0 0.0
2014-Sep-19 23:33S 12°29' E 130°53'0 0.0
2014-Sep-19 22:34S 12°29' E 130°53'0 0.0
2014-Sep-19 21:33S 12°29' E 130°53'0 0.0
2014-Sep-19 20:25S 12°29' E 130°53'0 0.0
2014-Sep-19 19:24S 12°29' E 130°53'0 0.0
2014-Sep-19 18:28S 12°29' E 130°53'0 0.0
2014-Sep-19 17:28S 12°29' E 130°53'0 0.0
2014-Sep-19 16:31S 12°29' E 130°53'0 0.0
2014-Sep-19 15:30S 12°29' E 130°53'0 0.0
2014-Sep-19 14:31S 12°29' E 130°53'0 0.0
2014-Sep-19 13:34S 12°29' E 130°53'0 0.0
2014-Sep-19 12:33S 12°29' E 130°53'0 0.0
2014-Sep-19 11:34S 12°29' E 130°53'0 0.0
2014-Sep-19 10:34S 12°29' E 130°53'0 0.0
2014-Sep-19 09:33S 12°29' E 130°53'0 0.0
2014-Sep-19 08:34S 12°29' E 130°53'0 0.0
2014-Sep-19 07:34S 12°29' E 130°53'0 0.0
2014-Sep-19 06:24S 12°29' E 130°53'0 0.0
2014-Sep-19 05:21S 12°29' E 130°53'0 0.0
2014-Sep-19 04:28S 12°29' E 130°53'0 0.0
2014-Sep-19 03:27S 12°29' E 130°53'0 0.0
2014-Sep-19 02:27S 12°29' E 130°53'0 0.0
2014-Sep-19 01:30S 12°29' E 130°53'0 0.0
2014-Sep-19 00:31S 12°29' E 130°53'0 0.0
2014-Sep-18 23:33S 12°29' E 130°53'0 0.0
2014-Sep-18 22:33S 12°29' E 130°53'0 0.0
2014-Sep-18 21:34S 12°29' E 130°53'0 0.0
2014-Sep-18 20:34S 12°29' E 130°53'0 0.0
2014-Sep-18 19:34S 12°29' E 130°53'0 0.0
2014-Sep-18 18:33S 12°29' E 130°53'0 0.0
2014-Sep-18 17:33S 12°29' E 130°53'0 0.0
2014-Sep-18 16:25S 12°29' E 130°53'0 0.0
2014-Sep-18 15:27S 12°29' E 130°53'0 0.0
2014-Sep-18 14:27S 12°29' E 130°53'0 0.0
2014-Sep-18 13:28S 12°29' E 130°53'0 0.0
2014-Sep-18 12:30S 12°29' E 130°53'0 0.0
2014-Sep-18 11:31S 12°29' E 130°53'0 0.0
2014-Sep-18 10:31S 12°29' E 130°53'0 0.0
2014-Sep-18 09:33S 12°29' E 130°53'0 0.0
2014-Sep-18 08:33S 12°29' E 130°53'0 0.0
2014-Sep-18 07:33S 12°29' E 130°53'0 0.0
2014-Sep-18 06:33S 12°29' E 130°53'0 0.0
2014-Sep-18 05:33S 12°29' E 130°53'0 0.0
2014-Sep-18 04:33S 12°29' E 130°53'0 0.0
2014-Sep-18 03:33S 12°29' E 130°53'0 0.0
2014-Sep-18 02:25S 12°29' E 130°53'0 0.0
2014-Sep-18 01:25S 12°29' E 130°53'0 0.0
2014-Sep-18 00:27S 12°29' E 130°53'0 0.0
2014-Sep-17 23:27S 12°29' E 130°53'0 0.0
2014-Sep-17 22:31S 12°29' E 130°53'0 0.0
2014-Sep-17 21:31S 12°29' E 130°53'0 0.0
2014-Sep-17 20:30S 12°29' E 130°53'0 0.0
2014-Sep-17 19:34S 12°29' E 130°53'0 0.0
2014-Sep-17 18:33S 12°29' E 130°53'0 0.0
2014-Sep-17 17:33S 12°29' E 130°53'0 0.0
2014-Sep-17 16:34S 12°29' E 130°53'0 0.0
2014-Sep-17 15:34S 12°29' E 130°53'0 0.0
2014-Sep-17 14:33S 12°29' E 130°53'0 0.0
2014-Sep-17 13:33S 12°29' E 130°53'0 0.0
2014-Sep-17 12:25S 12°29' E 130°53'0 0.0
2014-Sep-17 11:27S 12°29' E 130°53'0 0.0
2014-Sep-17 10:27S 12°29' E 130°53'0 0.0
2014-Sep-17 09:27S 12°29' E 130°53'0 0.0
2014-Sep-17 08:30S 12°29' E 130°53'0 0.0
2014-Sep-17 07:30S 12°29' E 130°53'0 0.0
2014-Sep-17 06:30S 12°29' E 130°53'0 0.0
2014-Sep-17 05:34S 12°29' E 130°53'0 0.0
2014-Sep-17 04:33S 12°29' E 130°53'0 0.0
2014-Sep-17 03:34S 12°29' E 130°53'0 0.0
2014-Sep-17 02:34S 12°29' E 130°53'0 0.1
2014-Sep-17 01:33S 12°29' E 130°53'0 0.1
2014-Sep-17 00:33S 12°29' E 130°53'0 0.0
2014-Sep-16 23:33S 12°29' E 130°53'0 0.0
2014-Sep-16 22:24S 12°29' E 130°53'0 0.0
2014-Sep-16 21:27S 12°29' E 130°53'0 0.0
2014-Sep-16 20:28S 12°29' E 130°53'0 0.0
2014-Sep-16 19:27S 12°29' E 130°53'0 0.0
2014-Sep-16 18:31S 12°29' E 130°53'0 0.0
2014-Sep-16 17:31S 12°29' E 130°53'0 0.0
2014-Sep-16 16:31S 12°29' E 130°53'0 0.0
2014-Sep-16 15:34S 12°29' E 130°53'0 0.0
2014-Sep-16 14:34S 12°29' E 130°53'0 0.0
2014-Sep-16 13:34S 12°29' E 130°53'0 0.0
2014-Sep-16 12:33S 12°29' E 130°53'0 0.0
2014-Sep-16 11:33S 12°29' E 130°53'0 0.0
2014-Sep-16 10:33S 12°29' E 130°53'0 0.0
2014-Sep-16 09:24S 12°29' E 130°53'0 0.0
2014-Sep-16 08:24S 12°29' E 130°53'0 0.0
2014-Sep-16 07:27S 12°29' E 130°53'0 0.0
2014-Sep-16 06:24S 12°29' E 130°53'0 0.0
2014-Sep-16 05:28S 12°29' E 130°53'0 0.0
2014-Sep-16 04:31S 12°29' E 130°53'0 0.0
2014-Sep-16 03:27S 12°29' E 130°53'0 0.0
2014-Sep-16 02:33S 12°29' E 130°53'0 0.0
2014-Sep-16 01:34S 12°29' E 130°53'0 0.0
2014-Sep-16 00:33S 12°29' E 130°53'0 0.0
2014-Sep-15 23:33S 12°29' E 130°53'0 0.0
2014-Sep-15 22:34S 12°29' E 130°53'0 0.0
2014-Sep-15 21:34S 12°29' E 130°53'0 0.0
2014-Sep-15 20:33S 12°29' E 130°53'0 0.0
2014-Sep-15 19:25S 12°29' E 130°53'0 0.0
2014-Sep-15 18:25S 12°29' E 130°53'0 0.0
2014-Sep-15 17:28S 12°29' E 130°53'0 0.0
2014-Sep-15 16:28S 12°29' E 130°53'0 0.0
2014-Sep-15 15:27S 12°29' E 130°53'0 0.0
2014-Sep-15 14:31S 12°29' E 130°53'0 0.0
2014-Sep-15 13:30S 12°29' E 130°53'0 0.0
2014-Sep-15 12:33S 12°29' E 130°53'0 0.0
2014-Sep-15 11:34S 12°29' E 130°53'0 0.0
2014-Sep-15 10:34S 12°29' E 130°53'0 0.0
2014-Sep-15 09:34S 12°29' E 130°53'0 0.0
2014-Sep-15 08:33S 12°29' E 130°53'0 0.0
2014-Sep-15 07:33S 12°29' E 130°53'0 0.0
2014-Sep-15 06:33S 12°29' E 130°53'0 0.0
2014-Sep-15 05:24S 12°29' E 130°53'0 0.0
2014-Sep-15 04:28S 12°29' E 130°53'0 0.0
2014-Sep-15 03:28S 12°29' E 130°53'0 0.0
2014-Sep-15 02:27S 12°29' E 130°53'0 0.0
2014-Sep-15 01:31S 12°29' E 130°53'0 0.0
2014-Sep-15 00:31S 12°29' E 130°53'0 0.0
2014-Sep-14 23:31S 12°29' E 130°53'0 0.0
2014-Sep-14 22:33S 12°29' E 130°53'0 0.0
2014-Sep-14 21:33S 12°29' E 130°53'0 0.0
2014-Sep-14 20:33S 12°29' E 130°53'0 0.0
2014-Sep-14 19:33S 12°29' E 130°53'0 0.0
2014-Sep-14 18:33S 12°29' E 130°53'0 0.0
2014-Sep-14 17:24S 12°29' E 130°53'0 0.0
2014-Sep-14 16:33S 12°29' E 130°53'  
Track history (hours):
 
Tides and Currents Weather Stations Pressure Air Temp Water Temp Dewpoint Dewpoint Depression Visibility Wind Speed Wind Dir Waves Ship Positions

Fortune Amaryllis

Last reported at 2014-Sep-24 16:05 UTC. Time now 2014-Oct-02 02:24 UTC.
Position S 08°52' E 129°26'.

Length 175 m; draft 9.3 m.

Type: Cargo ship. MMSI: 477046800.

Date/timePositionNaut miles runAvg speedWind from/ knotsBaromVisibWave heightAir tempDewpointWater temp
2014-Sep-24 16:05S 08°52' E 129°26'16810.7
2014-Sep-24 00:29S 11°38' E 129°43'1312.3
2014-Sep-23 23:24S 11°49' E 129°51'1112.4
2014-Sep-23 22:33S 11°57' E 129°58'1411.1
2014-Sep-23 21:15S 12°05' E 130°11'710.3
2014-Sep-23 20:33S 12°07' E 130°18'10 9.6
2014-Sep-23 19:33S 12°11' E 130°27'9 9.2
2014-Sep-23 18:33S 12°15' E 130°35'9 8.9
2014-Sep-23 17:33S 12°20' E 130°42'8 8.4
2014-Sep-23 16:33S 12°27' E 130°48'6 5.4
2014-Sep-23 15:29S 12°29' E 130°53'0 0.0
2014-Sep-23 14:29S 12°29' E 130°53'0 0.0
2014-Sep-23 13:32S 12°29' E 130°53'0 0.0
2014-Sep-23 12:32S 12°29' E 130°53'0 0.0
2014-Sep-23 11:32S 12°29' E 130°53'0 0.0
2014-Sep-23 10:32S 12°29' E 130°53'0 0.0
2014-Sep-23 09:32S 12°29' E 130°53'0 0.0
2014-Sep-23 08:32S 12°29' E 130°53'0 0.0
2014-Sep-23 07:32S 12°29' E 130°53'0 0.0
2014-Sep-23 06:32S 12°29' E 130°53'0 0.0
2014-Sep-23 05:23S 12°29' E 130°53'0 0.0
2014-Sep-23 04:26S 12°29' E 130°53'0 0.0
2014-Sep-23 03:26S 12°29' E 130°53'0 0.0
2014-Sep-23 02:29S 12°29' E 130°53'0 0.0
2014-Sep-23 01:29S 12°29' E 130°53'0 0.0
2014-Sep-23 00:29S 12°29' E 130°53'0 0.0
2014-Sep-22 23:29S 12°29' E 130°53'0 0.0
2014-Sep-22 22:32S 12°29' E 130°53'0 0.0
2014-Sep-22 21:32S 12°29' E 130°53'0 0.0
2014-Sep-22 20:32S 12°29' E 130°53'0 0.0
2014-Sep-22 19:32S 12°29' E 130°53'0 0.0
2014-Sep-22 18:32S 12°29' E 130°53'0 0.0
2014-Sep-22 17:32S 12°29' E 130°53'0 0.0
2014-Sep-22 16:23S 12°29' E 130°53'0 0.0
2014-Sep-22 15:23S 12°29' E 130°53'0 0.0
2014-Sep-22 14:26S 12°29' E 130°53'0 0.0
2014-Sep-22 13:26S 12°29' E 130°53'0 0.0
2014-Sep-22 12:29S 12°29' E 130°53'0 0.0
2014-Sep-22 11:29S 12°29' E 130°53'0 0.0
2014-Sep-22 10:29S 12°29' E 130°53'0 0.0
2014-Sep-22 09:32S 12°29' E 130°53'0 0.0
2014-Sep-22 08:32S 12°29' E 130°53'0 0.0
2014-Sep-22 07:32S 12°29' E 130°53'0 0.0
2014-Sep-22 06:32S 12°29' E 130°53'0 0.0
2014-Sep-22 05:32S 12°29' E 130°53'0 0.0
2014-Sep-22 04:32S 12°29' E 130°53'0 0.0
2014-Sep-22 03:32S 12°29' E 130°53'0 0.0
2014-Sep-22 02:23S 12°29' E 130°53'0 0.0
2014-Sep-22 01:26S 12°29' E 130°53'0 0.0
2014-Sep-22 00:26S 12°29' E 130°53'0 0.0
2014-Sep-21 23:26S 12°29' E 130°53'0 0.1
2014-Sep-21 22:34S 12°30' E 130°53'7 7.2
2014-Sep-21 21:33S 12°25' E 130°47'3 3.1
2014-Sep-21 20:32S 12°23' E 130°45'0 0.1
2014-Sep-21 19:32S 12°23' E 130°45'0 0.0
2014-Sep-21 18:32S 12°23' E 130°45'0 0.0
2014-Sep-21 17:32S 12°23' E 130°45'0 0.0
2014-Sep-21 16:23S 12°23' E 130°45'0 0.0
2014-Sep-21 15:26S 12°23' E 130°45'0 0.0
2014-Sep-21 14:26S 12°23' E 130°45'0 0.0
2014-Sep-21 13:26S 12°23' E 130°45'0 0.1
2014-Sep-21 12:29S 12°23' E 130°45'0 0.1
2014-Sep-21 11:29S 12°23' E 130°45'0 0.0
2014-Sep-21 10:29S 12°23' E 130°45'0 0.1
2014-Sep-21 09:32S 12°23' E 130°45'0 0.0
2014-Sep-21 08:32S 12°23' E 130°45'0 0.0
2014-Sep-21 07:32S 12°23' E 130°45'0 0.0
2014-Sep-21 06:32S 12°23' E 130°45'0 0.0
2014-Sep-21 05:32S 12°23' E 130°45'0 0.0
2014-Sep-21 04:32S 12°23' E 130°45'0 0.0
2014-Sep-21 03:32S 12°23' E 130°45'0 0.0
2014-Sep-21 02:23S 12°23' E 130°45'0 0.2
2014-Sep-21 01:26S 12°23' E 130°45'0 0.1
2014-Sep-21 00:26S 12°23' E 130°45'0 0.1
2014-Sep-20 23:29S 12°23' E 130°45'0 0.0
2014-Sep-20 22:29S 12°23' E 130°45'0 0.0
2014-Sep-20 21:29S 12°23' E 130°45'0 0.1
2014-Sep-20 20:29S 12°23' E 130°45'0 0.1
2014-Sep-20 19:32S 12°23' E 130°45'0 0.0
2014-Sep-20 18:32S 12°23' E 130°45'0 0.0
2014-Sep-20 17:32S 12°23' E 130°45'0 0.0
2014-Sep-20 16:32S 12°23' E 130°45'0 0.0
2014-Sep-20 15:32S 12°23' E 130°45'0 0.0
2014-Sep-20 14:32S 12°23' E 130°45'0 0.0
2014-Sep-20 13:23S 12°23' E 130°45'0 0.0
2014-Sep-20 12:23S 12°23' E 130°45'0 0.1
2014-Sep-20 11:26S 12°23' E 130°45'0 0.1
2014-Sep-20 10:26S 12°23' E 130°45'0 0.0
2014-Sep-20 09:29S 12°23' E 130°45'0 0.1
2014-Sep-20 08:29S 12°23' E 130°45'0 0.0
2014-Sep-20 07:29S 12°23' E 130°45'0 0.1
2014-Sep-20 06:32S 12°23' E 130°45'0 0.1
2014-Sep-20 05:32S 12°23' E 130°45'0 0.0
2014-Sep-20 04:32S 12°23' E 130°45'0 0.0
2014-Sep-20 03:32S 12°23' E 130°45'0 0.0
2014-Sep-20 02:33S 12°23' E 130°45'7 7.4
2014-Sep-20 01:33S 12°28' E 130°50'3 2.9
2014-Sep-20 00:33S 12°29' E 130°53'0 0.0
2014-Sep-19 23:33S 12°29' E 130°53'0 0.0
2014-Sep-19 22:34S 12°29' E 130°53'0 0.0
2014-Sep-19 21:33S 12°29' E 130°53'0 0.0
2014-Sep-19 20:25S 12°29' E 130°53'0 0.0
2014-Sep-19 19:24S 12°29' E 130°53'0 0.0
2014-Sep-19 18:28S 12°29' E 130°53'0 0.0
2014-Sep-19 17:28S 12°29' E 130°53'0 0.0
2014-Sep-19 16:31S 12°29' E 130°53'0 0.0
2014-Sep-19 15:30S 12°29' E 130°53'0 0.0
2014-Sep-19 14:31S 12°29' E 130°53'0 0.0
2014-Sep-19 13:34S 12°29' E 130°53'0 0.0
2014-Sep-19 12:33S 12°29' E 130°53'0 0.0
2014-Sep-19 11:34S 12°29' E 130°53'0 0.0
2014-Sep-19 10:34S 12°29' E 130°53'0 0.0
2014-Sep-19 09:33S 12°29' E 130°53'0 0.0
2014-Sep-19 08:34S 12°29' E 130°53'0 0.0
2014-Sep-19 07:34S 12°29' E 130°53'0 0.0
2014-Sep-19 06:24S 12°29' E 130°53'0 0.0
2014-Sep-19 05:21S 12°29' E 130°53'0 0.0
2014-Sep-19 04:28S 12°29' E 130°53'0 0.0
2014-Sep-19 03:27S 12°29' E 130°53'0 0.0
2014-Sep-19 02:27S 12°29' E 130°53'0 0.0
2014-Sep-19 01:30S 12°29' E 130°53'0 0.0
2014-Sep-19 00:31S 12°29' E 130°53'0 0.0
2014-Sep-18 23:33S 12°29' E 130°53'0 0.0
2014-Sep-18 22:33S 12°29' E 130°53'0 0.0
2014-Sep-18 21:34S 12°29' E 130°53'0 0.0
2014-Sep-18 20:34S 12°29' E 130°53'0 0.0
2014-Sep-18 19:34S 12°29' E 130°53'0 0.0
2014-Sep-18 18:33S 12°29' E 130°53'0 0.0
2014-Sep-18 17:33S 12°29' E 130°53'0 0.0
2014-Sep-18 16:25S 12°29' E 130°53'0 0.0
2014-Sep-18 15:27S 12°29' E 130°53'0 0.0
2014-Sep-18 14:27S 12°29' E 130°53'0 0.0
2014-Sep-18 13:28S 12°29' E 130°53'0 0.0
2014-Sep-18 12:30S 12°29' E 130°53'0 0.0
2014-Sep-18 11:31S 12°29' E 130°53'0 0.0
2014-Sep-18 10:31S 12°29' E 130°53'0 0.0
2014-Sep-18 09:33S 12°29' E 130°53'0 0.0
2014-Sep-18 08:33S 12°29' E 130°53'0 0.0
2014-Sep-18 07:33S 12°29' E 130°53'0 0.0
2014-Sep-18 06:33S 12°29' E 130°53'0 0.0
2014-Sep-18 05:33S 12°29' E 130°53'0 0.0
2014-Sep-18 04:33S 12°29' E 130°53'0 0.0
2014-Sep-18 03:33S 12°29' E 130°53'0 0.0
2014-Sep-18 02:25S 12°29' E 130°53'0 0.0
2014-Sep-18 01:25S 12°29' E 130°53'0 0.0
2014-Sep-18 00:27S 12°29' E 130°53'0 0.0
2014-Sep-17 23:27S 12°29' E 130°53'0 0.0
2014-Sep-17 22:31S 12°29' E 130°53'0 0.0
2014-Sep-17 21:31S 12°29' E 130°53'0 0.0
2014-Sep-17 20:30S 12°29' E 130°53'0 0.0
2014-Sep-17 19:34S 12°29' E 130°53'0 0.0
2014-Sep-17 18:33S 12°29' E 130°53'0 0.0
2014-Sep-17 17:33S 12°29' E 130°53'0 0.0
2014-Sep-17 16:34S 12°29' E 130°53'0 0.0
2014-Sep-17 15:34S 12°29' E 130°53'0 0.0
2014-Sep-17 14:33S 12°29' E 130°53'0 0.0
2014-Sep-17 13:33S 12°29' E 130°53'0 0.0
2014-Sep-17 12:25S 12°29' E 130°53'0 0.0
2014-Sep-17 11:27S 12°29' E 130°53'0 0.0
2014-Sep-17 10:27S 12°29' E 130°53'0 0.0
2014-Sep-17 09:27S 12°29' E 130°53'0 0.0
2014-Sep-17 08:30S 12°29' E 130°53'0 0.0
2014-Sep-17 07:30S 12°29' E 130°53'0 0.0
2014-Sep-17 06:30S 12°29' E 130°53'0 0.0
2014-Sep-17 05:34S 12°29' E 130°53'0 0.0
2014-Sep-17 04:33S 12°29' E 130°53'0 0.0
2014-Sep-17 03:34S 12°29' E 130°53'0 0.0
2014-Sep-17 02:34S 12°29' E 130°53'0 0.1
2014-Sep-17 01:33S 12°29' E 130°53'0 0.1
2014-Sep-17 00:33S 12°29' E 130°53'0 0.0
2014-Sep-16 23:33S 12°29' E 130°53'0 0.0
2014-Sep-16 22:24S 12°29' E 130°53'0 0.0
2014-Sep-16 21:27S 12°29' E 130°53'0 0.0
2014-Sep-16 20:28S 12°29' E 130°53'0 0.0
2014-Sep-16 19:27S 12°29' E 130°53'0 0.0
2014-Sep-16 18:31S 12°29' E 130°53'0 0.0
2014-Sep-16 17:31S 12°29' E 130°53'0 0.0
2014-Sep-16 16:31S 12°29' E 130°53'0 0.0
2014-Sep-16 15:34S 12°29' E 130°53'0 0.0
2014-Sep-16 14:34S 12°29' E 130°53'0 0.0
2014-Sep-16 13:34S 12°29' E 130°53'0 0.0
2014-Sep-16 12:33S 12°29' E 130°53'0 0.0
2014-Sep-16 11:33S 12°29' E 130°53'0 0.0
2014-Sep-16 10:33S 12°29' E 130°53'0 0.0
2014-Sep-16 09:24S 12°29' E 130°53'0 0.0
2014-Sep-16 08:24S 12°29' E 130°53'0 0.0
2014-Sep-16 07:27S 12°29' E 130°53'0 0.0
2014-Sep-16 06:24S 12°29' E 130°53'0 0.0
2014-Sep-16 05:28S 12°29' E 130°53'0 0.0
2014-Sep-16 04:31S 12°29' E 130°53'0 0.0
2014-Sep-16 03:27S 12°29' E 130°53'0 0.0
2014-Sep-16 02:33S 12°29' E 130°53'0 0.0
2014-Sep-16 01:34S 12°29' E 130°53'0 0.0
2014-Sep-16 00:33S 12°29' E 130°53'0 0.0
2014-Sep-15 23:33S 12°29' E 130°53'0 0.0
2014-Sep-15 22:34S 12°29' E 130°53'0 0.0
2014-Sep-15 21:34S 12°29' E 130°53'0 0.0
2014-Sep-15 20:33S 12°29' E 130°53'0 0.0
2014-Sep-15 19:25S 12°29' E 130°53'0 0.0
2014-Sep-15 18:25S 12°29' E 130°53'0 0.0
2014-Sep-15 17:28S 12°29' E 130°53'0 0.0
2014-Sep-15 16:28S 12°29' E 130°53'0 0.0
2014-Sep-15 15:27S 12°29' E 130°53'0 0.0
2014-Sep-15 14:31S 12°29' E 130°53'0 0.0
2014-Sep-15 13:30S 12°29' E 130°53'0 0.0
2014-Sep-15 12:33S 12°29' E 130°53'0 0.0
2014-Sep-15 11:34S 12°29' E 130°53'0 0.0
2014-Sep-15 10:34S 12°29' E 130°53'0 0.0
2014-Sep-15 09:34S 12°29' E 130°53'0 0.0
2014-Sep-15 08:33S 12°29' E 130°53'0 0.0
2014-Sep-15 07:33S 12°29' E 130°53'0 0.0
2014-Sep-15 06:33S 12°29' E 130°53'0 0.0
2014-Sep-15 05:24S 12°29' E 130°53'0 0.0
2014-Sep-15 04:28S 12°29' E 130°53'0 0.0
2014-Sep-15 03:28S 12°29' E 130°53'0 0.0
2014-Sep-15 02:27S 12°29' E 130°53'0 0.0
2014-Sep-15 01:31S 12°29' E 130°53'0 0.0
2014-Sep-15 00:31S 12°29' E 130°53'0 0.0
2014-Sep-14 23:31S 12°29' E 130°53'0 0.0
2014-Sep-14 22:33S 12°29' E 130°53'0 0.0
2014-Sep-14 21:33S 12°29' E 130°53'0 0.0
2014-Sep-14 20:33S 12°29' E 130°53'0 0.0
2014-Sep-14 19:33S 12°29' E 130°53'0 0.0
2014-Sep-14 18:33S 12°29' E 130°53'0 0.0
2014-Sep-14 17:24S 12°29' E 130°53'0 0.0
2014-Sep-14 16:33S 12°29' E 130°53'  

Dump ship's entire track history